Terminal Aerodrome Forecast
Issued by NWS Charleston, WV

Current Version | Previous Version | Text Only | Print | Product List | Glossary Off
Versions: 1 2 3 4 5 6 7 8 9 10 11 12 13 14 15 16 17 18 19 20 21 22 23

000
FTUS41 KRLX 142300
TAFPKB
TAF
KPKB 142321Z 1500/1524 36002KT P6SM SCT035
     FM150400 00000KT 6SM BR FEW002
     FM150700 00000KT 3SM BR SCT001
     FM150800 00000KT 2SM BR SCT001
     FM151000 00000KT 1/2SM FG VV001
     FM151300 00000KT 3SM BR SCT001
     FM151400 21004KT P6SM SCT050=

USA.gov is the U.S. government's official web portal to all federal, state and local government web resources and services.